sensor_id;sensor_type;location;lat;lon;timestamp;P1;durP1;ratioP1;P2;durP2;ratioP2
11398;SDS011;5755;48.116;11.608;2023-02-28T00:01:11;4.17;;;2.93;;
11398;SDS011;5755;48.116;11.608;2023-02-28T00:03:41;6.07;;;3.17;;
11398;SDS011;5755;48.116;11.608;2023-02-28T00:06:08;4.07;;;3.00;;
11398;SDS011;5755;48.116;11.608;2023-02-28T00:08:35;4.57;;;2.90;;
11398;SDS011;5755;48.116;11.608;2023-02-28T00:11:02;5.13;;;3.00;;
11398;SDS011;5755;48.116;11.608;2023-02-28T00:13:30;5.30;;;3.40;;
11398;SDS011;5755;48.116;11.608;2023-02-28T00:16:00;6.23;;;3.13;;
11398;SDS011;5755;48.116;11.608;2023-02-28T00:18:29;6.03;;;3.23;;
11398;SDS011;5755;48.116;11.608;2023-02-28T00:20:57;5.90;;;3.40;;
11398;SDS011;5755;48.116;11.608;2023-02-28T00:23:24;5.43;;;3.30;;
11398;SDS011;5755;48.116;11.608;2023-02-28T00:25:53;4.57;;;3.30;;
11398;SDS011;5755;48.116;11.608;2023-02-28T00:28:20;6.13;;;3.13;;
11398;SDS011;5755;48.116;11.608;2023-02-28T00:30:48;5.87;;;3.47;;
11398;SDS011;5755;48.116;11.608;2023-02-28T00:33:15;5.00;;;3.20;;
11398;SDS011;5755;48.116;11.608;2023-02-28T00:35:42;5.87;;;3.13;;
11398;SDS011;5755;48.116;11.608;2023-02-28T00:38:13;4.90;;;3.17;;
11398;SDS011;5755;48.116;11.608;2023-02-28T00:40:40;4.27;;;3.40;;
11398;SDS011;5755;48.116;11.608;2023-02-28T00:43:07;4.57;;;3.43;;
11398;SDS011;5755;48.116;11.608;2023-02-28T00:45:34;4.73;;;3.40;;
11398;SDS011;5755;48.116;11.608;2023-02-28T00:48:01;7.87;;;3.67;;
11398;SDS011;5755;48.116;11.608;2023-02-28T00:50:29;6.37;;;3.37;;
11398;SDS011;5755;48.116;11.608;2023-02-28T00:52:55;5.67;;;3.63;;
11398;SDS011;5755;48.116;11.608;2023-02-28T00:55:24;3.77;;;2.90;;
11398;SDS011;5755;48.116;11.608;2023-02-28T00:57:51;4.97;;;3.37;;
11398;SDS011;5755;48.116;11.608;2023-02-28T01:00:18;5.47;;;3.13;;
11398;SDS011;5755;48.116;11.608;2023-02-28T01:02:45;4.63;;;3.37;;
11398;SDS011;5755;48.116;11.608;2023-02-28T01:05:12;4.10;;;3.27;;
11398;SDS011;5755;48.116;11.608;2023-02-28T01:07:39;6.53;;;3.77;;
11398;SDS011;5755;48.116;11.608;2023-02-28T01:10:06;3.87;;;2.90;;
11398;SDS011;5755;48.116;11.608;2023-02-28T01:12:35;5.83;;;3.40;;
11398;SDS011;5755;48.116;11.608;2023-02-28T01:15:02;4.53;;;3.30;;
11398;SDS011;5755;48.116;11.608;2023-02-28T01:17:30;5.63;;;3.33;;
11398;SDS011;5755;48.116;11.608;2023-02-28T01:19:57;7.27;;;3.77;;
11398;SDS011;5755;48.116;11.608;2023-02-28T01:22:23;4.47;;;3.10;;
11398;SDS011;5755;48.116;11.608;2023-02-28T01:24:50;5.03;;;3.57;;
11398;SDS011;5755;48.116;11.608;2023-02-28T01:27:17;6.03;;;3.80;;
11398;SDS011;5755;48.116;11.608;2023-02-28T01:29:45;5.03;;;3.63;;
11398;SDS011;5755;48.116;11.608;2023-02-28T01:32:12;5.00;;;3.50;;
11398;SDS011;5755;48.116;11.608;2023-02-28T01:34:40;4.37;;;3.60;;
11398;SDS011;5755;48.116;11.608;2023-02-28T01:37:07;5.90;;;3.73;;
11398;SDS011;5755;48.116;11.608;2023-02-28T01:39:34;5.30;;;3.40;;
11398;SDS011;5755;48.116;11.608;2023-02-28T01:42:01;4.33;;;3.60;;
11398;SDS011;5755;48.116;11.608;2023-02-28T01:47:23;7.47;;;3.87;;
11398;SDS011;5755;48.116;11.608;2023-02-28T01:49:53;4.77;;;3.53;;
11398;SDS011;5755;48.116;11.608;2023-02-28T01:52:20;4.27;;;3.20;;
11398;SDS011;5755;48.116;11.608;2023-02-28T01:54:50;4.93;;;3.53;;
11398;SDS011;5755;48.116;11.608;2023-02-28T01:57:20;5.63;;;4.10;;
11398;SDS011;5755;48.116;11.608;2023-02-28T01:59:53;5.03;;;3.57;;
11398;SDS011;5755;48.116;11.608;2023-02-28T02:02:24;5.27;;;3.80;;
11398;SDS011;5755;48.116;11.608;2023-02-28T02:04:53;5.63;;;3.70;;
11398;SDS011;5755;48.116;11.608;2023-02-28T02:07:23;6.80;;;3.53;;
11398;SDS011;5755;48.116;11.608;2023-02-28T02:09:58;5.73;;;3.77;;
11398;SDS011;5755;48.116;11.608;2023-02-28T02:12:36;6.20;;;4.07;;
11398;SDS011;5755;48.116;11.608;2023-02-28T02:15:16;6.30;;;3.87;;
11398;SDS011;5755;48.116;11.608;2023-02-28T02:17:48;5.53;;;3.83;;
11398;SDS011;5755;48.116;11.608;2023-02-28T02:20:32;5.93;;;3.73;;
11398;SDS011;5755;48.116;11.608;2023-02-28T02:23:29;8.40;;;3.93;;
11398;SDS011;5755;48.116;11.608;2023-02-28T02:26:31;4.93;;;3.80;;
11398;SDS011;5755;48.116;11.608;2023-02-28T02:29:22;7.97;;;3.90;;
11398;SDS011;5755;48.116;11.608;2023-02-28T02:35:13;5.23;;;3.60;;
11398;SDS011;5755;48.116;11.608;2023-02-28T02:37:43;9.17;;;4.03;;
11398;SDS011;5755;48.116;11.608;2023-02-28T02:40:16;8.73;;;4.13;;
11398;SDS011;5755;48.116;11.608;2023-02-28T02:42:48;5.27;;;3.80;;
11398;SDS011;5755;48.116;11.608;2023-02-28T02:45:22;5.73;;;3.90;;
11398;SDS011;5755;48.116;11.608;2023-02-28T02:47:52;6.00;;;3.70;;
11398;SDS011;5755;48.116;11.608;2023-02-28T02:50:23;6.53;;;3.67;;
11398;SDS011;5755;48.116;11.608;2023-02-28T02:52:58;5.87;;;3.47;;
11398;SDS011;5755;48.116;11.608;2023-02-28T02:55:26;6.90;;;4.13;;
11398;SDS011;5755;48.116;11.608;2023-02-28T02:57:54;7.20;;;4.17;;
11398;SDS011;5755;48.116;11.608;2023-02-28T03:00:26;5.00;;;3.73;;
11398;SDS011;5755;48.116;11.608;2023-02-28T03:02:58;7.27;;;3.70;;
11398;SDS011;5755;48.116;11.608;2023-02-28T03:05:29;6.03;;;4.30;;
11398;SDS011;5755;48.116;11.608;2023-02-28T03:08:02;6.37;;;4.40;;
11398;SDS011;5755;48.116;11.608;2023-02-28T03:10:36;5.00;;;3.90;;
11398;SDS011;5755;48.116;11.608;2023-02-28T03:13:08;6.60;;;3.90;;
11398;SDS011;5755;48.116;11.608;2023-02-28T03:15:57;6.60;;;3.73;;
11398;SDS011;5755;48.116;11.608;2023-02-28T03:18:34;9.33;;;4.13;;
11398;SDS011;5755;48.116;11.608;2023-02-28T03:21:09;6.00;;;4.00;;
11398;SDS011;5755;48.116;11.608;2023-02-28T03:23:45;6.20;;;3.83;;
11398;SDS011;5755;48.116;11.608;2023-02-28T03:26:21;5.93;;;4.57;;
11398;SDS011;5755;48.116;11.608;2023-02-28T03:28:52;7.10;;;4.77;;
11398;SDS011;5755;48.116;11.608;2023-02-28T03:31:26;6.47;;;4.53;;
11398;SDS011;5755;48.116;11.608;2023-02-28T03:33:58;7.20;;;4.60;;
11398;SDS011;5755;48.116;11.608;2023-02-28T03:36:32;7.33;;;4.53;;
11398;SDS011;5755;48.116;11.608;2023-02-28T03:39:08;7.83;;;4.70;;
11398;SDS011;5755;48.116;11.608;2023-02-28T03:41:40;6.37;;;4.40;;
11398;SDS011;5755;48.116;11.608;2023-02-28T03:44:13;6.10;;;4.40;;
11398;SDS011;5755;48.116;11.608;2023-02-28T03:46:45;5.97;;;4.40;;
11398;SDS011;5755;48.116;11.608;2023-02-28T03:49:20;6.47;;;4.50;;
11398;SDS011;5755;48.116;11.608;2023-02-28T03:51:50;5.73;;;4.67;;
11398;SDS011;5755;48.116;11.608;2023-02-28T03:54:18;6.40;;;4.70;;
11398;SDS011;5755;48.116;11.608;2023-02-28T03:56:48;7.00;;;4.63;;
11398;SDS011;5755;48.116;11.608;2023-02-28T03:59:21;6.13;;;4.70;;
11398;SDS011;5755;48.116;11.608;2023-02-28T04:01:52;6.47;;;4.70;;
11398;SDS011;5755;48.116;11.608;2023-02-28T04:04:20;6.87;;;5.17;;
11398;SDS011;5755;48.116;11.608;2023-02-28T04:06:49;8.63;;;5.33;;
11398;SDS011;5755;48.116;11.608;2023-02-28T04:09:18;7.00;;;5.00;;
11398;SDS011;5755;48.116;11.608;2023-02-28T04:11:45;7.80;;;5.13;;
11398;SDS011;5755;48.116;11.608;2023-02-28T04:14:16;8.93;;;5.10;;
11398;SDS011;5755;48.116;11.608;2023-02-28T04:16:43;7.10;;;5.33;;
11398;SDS011;5755;48.116;11.608;2023-02-28T04:19:12;9.37;;;5.43;;
11398;SDS011;5755;48.116;11.608;2023-02-28T04:21:40;8.10;;;5.60;;
11398;SDS011;5755;48.116;11.608;2023-02-28T04:24:10;8.60;;;5.50;;
11398;SDS011;5755;48.116;11.608;2023-02-28T04:26:40;8.43;;;5.87;;
11398;SDS011;5755;48.116;11.608;2023-02-28T04:29:09;8.37;;;5.70;;
11398;SDS011;5755;48.116;11.608;2023-02-28T04:31:38;9.57;;;5.97;;
11398;SDS011;5755;48.116;11.608;2023-02-28T04:34:05;9.07;;;6.40;;
11398;SDS011;5755;48.116;11.608;2023-02-28T04:36:32;7.60;;;5.87;;
11398;SDS011;5755;48.116;11.608;2023-02-28T04:38:59;10.37;;;6.80;;
11398;SDS011;5755;48.116;11.608;2023-02-28T04:41:28;9.47;;;6.40;;
11398;SDS011;5755;48.116;11.608;2023-02-28T04:43:54;9.27;;;6.17;;
11398;SDS011;5755;48.116;11.608;2023-02-28T04:46:22;8.03;;;5.70;;
11398;SDS011;5755;48.116;11.608;2023-02-28T04:48:49;11.10;;;6.40;;
11398;SDS011;5755;48.116;11.608;2023-02-28T04:51:17;10.83;;;6.30;;
11398;SDS011;5755;48.116;11.608;2023-02-28T04:53:44;9.27;;;6.50;;
11398;SDS011;5755;48.116;11.608;2023-02-28T04:56:12;9.70;;;6.17;;
11398;SDS011;5755;48.116;11.608;2023-02-28T04:58:42;11.93;;;6.30;;
11398;SDS011;5755;48.116;11.608;2023-02-28T05:01:16;8.67;;;6.37;;
11398;SDS011;5755;48.116;11.608;2023-02-28T05:03:45;8.83;;;6.40;;
11398;SDS011;5755;48.116;11.608;2023-02-28T05:06:12;10.43;;;6.50;;
11398;SDS011;5755;48.116;11.608;2023-02-28T05:08:40;10.70;;;6.97;;
11398;SDS011;5755;48.116;11.608;2023-02-28T05:11:08;10.27;;;6.90;;
11398;SDS011;5755;48.116;11.608;2023-02-28T05:13:42;12.27;;;7.60;;
11398;SDS011;5755;48.116;11.608;2023-02-28T05:16:08;11.50;;;7.27;;
11398;SDS011;5755;48.116;11.608;2023-02-28T05:18:35;11.77;;;7.37;;
11398;SDS011;5755;48.116;11.608;2023-02-28T05:21:02;12.10;;;7.47;;
11398;SDS011;5755;48.116;11.608;2023-02-28T05:23:29;13.73;;;8.10;;
11398;SDS011;5755;48.116;11.608;2023-02-28T05:25:56;10.90;;;7.50;;
11398;SDS011;5755;48.116;11.608;2023-02-28T05:28:23;12.70;;;8.07;;
11398;SDS011;5755;48.116;11.608;2023-02-28T05:30:51;15.40;;;7.63;;
11398;SDS011;5755;48.116;11.608;2023-02-28T05:33:18;13.50;;;8.03;;
11398;SDS011;5755;48.116;11.608;2023-02-28T05:35:45;11.70;;;7.63;;
11398;SDS011;5755;48.116;11.608;2023-02-28T05:38:12;11.20;;;7.87;;
11398;SDS011;5755;48.116;11.608;2023-02-28T05:40:39;13.57;;;8.10;;
11398;SDS011;5755;48.116;11.608;2023-02-28T05:43:05;14.40;;;8.87;;
11398;SDS011;5755;48.116;11.608;2023-02-28T05:45:36;13.40;;;8.47;;
11398;SDS011;5755;48.116;11.608;2023-02-28T05:48:05;12.80;;;8.40;;
11398;SDS011;5755;48.116;11.608;2023-02-28T05:50:32;14.73;;;8.87;;
11398;SDS011;5755;48.116;11.608;2023-02-28T05:52:58;16.40;;;9.47;;
11398;SDS011;5755;48.116;11.608;2023-02-28T05:55:25;13.40;;;9.10;;
11398;SDS011;5755;48.116;11.608;2023-02-28T05:57:52;13.07;;;9.60;;
11398;SDS011;5755;48.116;11.608;2023-02-28T06:00:19;14.80;;;9.43;;
11398;SDS011;5755;48.116;11.608;2023-02-28T06:02:46;13.67;;;9.50;;
11398;SDS011;5755;48.116;11.608;2023-02-28T06:05:16;15.17;;;9.60;;
11398;SDS011;5755;48.116;11.608;2023-02-28T06:07:44;13.43;;;9.70;;
11398;SDS011;5755;48.116;11.608;2023-02-28T06:10:11;12.60;;;9.43;;
11398;SDS011;5755;48.116;11.608;2023-02-28T06:12:38;15.03;;;10.23;;
11398;SDS011;5755;48.116;11.608;2023-02-28T06:15:06;13.33;;;9.37;;
11398;SDS011;5755;48.116;11.608;2023-02-28T06:17:34;14.93;;;9.60;;
11398;SDS011;5755;48.116;11.608;2023-02-28T06:20:01;14.10;;;9.60;;
11398;SDS011;5755;48.116;11.608;2023-02-28T06:22:29;15.70;;;9.33;;
11398;SDS011;5755;48.116;11.608;2023-02-28T06:24:56;15.90;;;10.40;;
11398;SDS011;5755;48.116;11.608;2023-02-28T06:27:23;15.73;;;10.20;;
11398;SDS011;5755;48.116;11.608;2023-02-28T06:29:52;15.47;;;10.80;;
11398;SDS011;5755;48.116;11.608;2023-02-28T06:32:20;16.03;;;10.50;;
11398;SDS011;5755;48.116;11.608;2023-02-28T06:34:47;16.43;;;9.83;;
11398;SDS011;5755;48.116;11.608;2023-02-28T06:37:13;17.23;;;10.90;;
11398;SDS011;5755;48.116;11.608;2023-02-28T06:39:42;17.07;;;10.37;;
11398;SDS011;5755;48.116;11.608;2023-02-28T06:42:09;17.10;;;10.70;;
11398;SDS011;5755;48.116;11.608;2023-02-28T06:44:36;16.50;;;10.77;;
11398;SDS011;5755;48.116;11.608;2023-02-28T06:47:05;16.07;;;11.17;;
11398;SDS011;5755;48.116;11.608;2023-02-28T06:49:33;14.03;;;10.50;;
11398;SDS011;5755;48.116;11.608;2023-02-28T06:52:01;15.73;;;11.37;;
11398;SDS011;5755;48.116;11.608;2023-02-28T06:54:28;16.00;;;10.80;;
11398;SDS011;5755;48.116;11.608;2023-02-28T06:56:57;16.23;;;11.17;;
11398;SDS011;5755;48.116;11.608;2023-02-28T06:59:24;16.20;;;10.70;;
11398;SDS011;5755;48.116;11.608;2023-02-28T07:01:51;19.47;;;11.13;;
11398;SDS011;5755;48.116;11.608;2023-02-28T07:04:18;15.20;;;10.93;;
11398;SDS011;5755;48.116;11.608;2023-02-28T07:06:44;15.40;;;11.07;;
11398;SDS011;5755;48.116;11.608;2023-02-28T07:09:11;16.80;;;11.20;;
11398;SDS011;5755;48.116;11.608;2023-02-28T07:11:39;15.23;;;11.17;;
11398;SDS011;5755;48.116;11.608;2023-02-28T07:14:09;18.73;;;11.30;;
11398;SDS011;5755;48.116;11.608;2023-02-28T07:16:36;18.00;;;11.53;;
11398;SDS011;5755;48.116;11.608;2023-02-28T07:19:02;17.17;;;11.43;;
11398;SDS011;5755;48.116;11.608;2023-02-28T07:21:30;18.20;;;12.30;;
11398;SDS011;5755;48.116;11.608;2023-02-28T07:23:56;15.63;;;11.80;;
11398;SDS011;5755;48.116;11.608;2023-02-28T07:26:24;16.33;;;11.47;;
11398;SDS011;5755;48.116;11.608;2023-02-28T07:28:50;20.30;;;11.23;;
11398;SDS011;5755;48.116;11.608;2023-02-28T07:31:20;14.83;;;11.33;;
11398;SDS011;5755;48.116;11.608;2023-02-28T07:33:46;16.60;;;11.07;;
11398;SDS011;5755;48.116;11.608;2023-02-28T07:36:14;16.40;;;11.27;;
11398;SDS011;5755;48.116;11.608;2023-02-28T07:38:44;16.83;;;11.50;;
11398;SDS011;5755;48.116;11.608;2023-02-28T07:41:13;16.27;;;11.13;;
11398;SDS011;5755;48.116;11.608;2023-02-28T07:43:40;17.10;;;11.27;;
11398;SDS011;5755;48.116;11.608;2023-02-28T07:46:08;17.17;;;11.50;;
11398;SDS011;5755;48.116;11.608;2023-02-28T07:48:37;15.87;;;11.37;;
11398;SDS011;5755;48.116;11.608;2023-02-28T07:51:04;14.87;;;11.60;;
11398;SDS011;5755;48.116;11.608;2023-02-28T07:53:31;17.27;;;11.53;;
11398;SDS011;5755;48.116;11.608;2023-02-28T07:55:58;17.83;;;11.67;;
11398;SDS011;5755;48.116;11.608;2023-02-28T07:58:26;19.17;;;12.47;;
11398;SDS011;5755;48.116;11.608;2023-02-28T08:00:54;17.33;;;11.73;;
11398;SDS011;5755;48.116;11.608;2023-02-28T08:03:22;14.60;;;11.00;;
11398;SDS011;5755;48.116;11.608;2023-02-28T08:05:51;17.53;;;11.47;;
11398;SDS011;5755;48.116;11.608;2023-02-28T08:08:18;19.53;;;11.80;;
11398;SDS011;5755;48.116;11.608;2023-02-28T08:10:45;18.23;;;12.37;;
11398;SDS011;5755;48.116;11.608;2023-02-28T08:13:12;17.63;;;11.83;;
11398;SDS011;5755;48.116;11.608;2023-02-28T08:15:40;16.87;;;11.43;;
11398;SDS011;5755;48.116;11.608;2023-02-28T08:18:07;19.40;;;11.50;;
11398;SDS011;5755;48.116;11.608;2023-02-28T08:20:34;17.00;;;11.70;;
11398;SDS011;5755;48.116;11.608;2023-02-28T08:23:02;17.37;;;11.10;;
11398;SDS011;5755;48.116;11.608;2023-02-28T08:25:29;16.30;;;11.63;;
11398;SDS011;5755;48.116;11.608;2023-02-28T08:27:56;20.40;;;12.37;;
11398;SDS011;5755;48.116;11.608;2023-02-28T08:30:22;16.80;;;11.67;;
11398;SDS011;5755;48.116;11.608;2023-02-28T08:32:49;15.43;;;11.13;;
11398;SDS011;5755;48.116;11.608;2023-02-28T08:35:16;17.77;;;11.33;;
11398;SDS011;5755;48.116;11.608;2023-02-28T08:37:43;17.13;;;11.13;;
11398;SDS011;5755;48.116;11.608;2023-02-28T08:40:12;17.17;;;11.33;;
11398;SDS011;5755;48.116;11.608;2023-02-28T08:42:43;16.57;;;11.47;;
11398;SDS011;5755;48.116;11.608;2023-02-28T08:45:10;15.70;;;11.23;;
11398;SDS011;5755;48.116;11.608;2023-02-28T08:47:37;17.67;;;11.37;;
11398;SDS011;5755;48.116;11.608;2023-02-28T08:50:04;15.83;;;11.43;;
11398;SDS011;5755;48.116;11.608;2023-02-28T08:52:33;16.23;;;11.37;;
11398;SDS011;5755;48.116;11.608;2023-02-28T08:54:59;15.97;;;11.77;;
11398;SDS011;5755;48.116;11.608;2023-02-28T08:57:28;17.70;;;12.67;;
11398;SDS011;5755;48.116;11.608;2023-02-28T08:59:54;17.40;;;11.87;;
11398;SDS011;5755;48.116;11.608;2023-02-28T09:02:22;16.47;;;11.63;;
11398;SDS011;5755;48.116;11.608;2023-02-28T09:04:49;17.03;;;11.03;;
11398;SDS011;5755;48.116;11.608;2023-02-28T09:07:15;14.47;;;11.37;;
11398;SDS011;5755;48.116;11.608;2023-02-28T09:09:42;14.50;;;10.43;;
11398;SDS011;5755;48.116;11.608;2023-02-28T09:12:19;16.50;;;11.30;;
11398;SDS011;5755;48.116;11.608;2023-02-28T09:14:48;14.73;;;11.07;;
11398;SDS011;5755;48.116;11.608;2023-02-28T09:17:15;15.70;;;10.97;;
11398;SDS011;5755;48.116;11.608;2023-02-28T09:19:42;20.20;;;11.57;;
11398;SDS011;5755;48.116;11.608;2023-02-28T09:22:10;15.47;;;11.43;;
11398;SDS011;5755;48.116;11.608;2023-02-28T09:24:37;16.90;;;12.10;;
11398;SDS011;5755;48.116;11.608;2023-02-28T09:27:05;15.50;;;11.47;;
11398;SDS011;5755;48.116;11.608;2023-02-28T09:29:32;18.80;;;11.40;;
11398;SDS011;5755;48.116;11.608;2023-02-28T09:32:01;17.17;;;11.20;;
11398;SDS011;5755;48.116;11.608;2023-02-28T09:34:30;17.03;;;11.33;;
11398;SDS011;5755;48.116;11.608;2023-02-28T09:36:57;19.23;;;12.23;;
11398;SDS011;5755;48.116;11.608;2023-02-28T09:39:24;17.53;;;11.70;;
11398;SDS011;5755;48.116;11.608;2023-02-28T09:41:52;16.90;;;11.50;;
11398;SDS011;5755;48.116;11.608;2023-02-28T09:44:21;17.13;;;11.40;;
11398;SDS011;5755;48.116;11.608;2023-02-28T09:46:55;16.03;;;11.47;;
11398;SDS011;5755;48.116;11.608;2023-02-28T09:49:28;16.53;;;11.67;;
11398;SDS011;5755;48.116;11.608;2023-02-28T09:52:02;17.57;;;12.17;;
11398;SDS011;5755;48.116;11.608;2023-02-28T09:54:34;16.60;;;11.30;;
11398;SDS011;5755;48.116;11.608;2023-02-28T09:57:04;18.73;;;11.20;;
11398;SDS011;5755;48.116;11.608;2023-02-28T09:59:39;18.07;;;11.37;;
11398;SDS011;5755;48.116;11.608;2023-02-28T10:02:17;15.00;;;11.40;;
11398;SDS011;5755;48.116;11.608;2023-02-28T10:05:07;15.00;;;11.13;;
11398;SDS011;5755;48.116;11.608;2023-02-28T10:07:41;19.73;;;11.37;;
11398;SDS011;5755;48.116;11.608;2023-02-28T10:10:24;16.50;;;11.40;;
11398;SDS011;5755;48.116;11.608;2023-02-28T10:12:54;15.70;;;11.67;;
11398;SDS011;5755;48.116;11.608;2023-02-28T10:15:26;14.80;;;11.30;;
11398;SDS011;5755;48.116;11.608;2023-02-28T10:17:57;16.90;;;11.73;;
11398;SDS011;5755;48.116;11.608;2023-02-28T10:20:30;15.90;;;11.70;;
11398;SDS011;5755;48.116;11.608;2023-02-28T10:23:02;17.00;;;11.87;;
11398;SDS011;5755;48.116;11.608;2023-02-28T10:25:36;17.47;;;12.53;;
11398;SDS011;5755;48.116;11.608;2023-02-28T10:28:08;17.47;;;11.17;;
11398;SDS011;5755;48.116;11.608;2023-02-28T10:30:38;14.33;;;10.70;;
11398;SDS011;5755;48.116;11.608;2023-02-28T10:33:08;16.43;;;11.00;;
11398;SDS011;5755;48.116;11.608;2023-02-28T10:35:45;17.13;;;11.37;;
11398;SDS011;5755;48.116;11.608;2023-02-28T10:38:14;15.80;;;11.27;;
11398;SDS011;5755;48.116;11.608;2023-02-28T10:40:42;15.47;;;11.03;;
11398;SDS011;5755;48.116;11.608;2023-02-28T10:43:18;15.63;;;10.77;;
11398;SDS011;5755;48.116;11.608;2023-02-28T10:45:57;16.17;;;10.27;;
11398;SDS011;5755;48.116;11.608;2023-02-28T10:48:32;15.97;;;10.97;;
11398;SDS011;5755;48.116;11.608;2023-02-28T10:51:02;12.50;;;10.17;;
11398;SDS011;5755;48.116;11.608;2023-02-28T10:53:32;16.77;;;10.47;;
11398;SDS011;5755;48.116;11.608;2023-02-28T10:56:02;14.20;;;11.03;;
11398;SDS011;5755;48.116;11.608;2023-02-28T10:58:33;13.40;;;10.07;;
11398;SDS011;5755;48.116;11.608;2023-02-28T11:01:13;16.97;;;11.50;;
11398;SDS011;5755;48.116;11.608;2023-02-28T11:03:41;16.07;;;11.23;;
11398;SDS011;5755;48.116;11.608;2023-02-28T11:06:12;16.53;;;11.33;;
11398;SDS011;5755;48.116;11.608;2023-02-28T11:08:49;17.00;;;11.67;;
11398;SDS011;5755;48.116;11.608;2023-02-28T11:11:19;14.87;;;11.00;;
11398;SDS011;5755;48.116;11.608;2023-02-28T11:13:48;16.40;;;11.17;;
11398;SDS011;5755;48.116;11.608;2023-02-28T11:16:19;13.00;;;11.17;;
11398;SDS011;5755;48.116;11.608;2023-02-28T11:18:48;16.90;;;11.63;;
11398;SDS011;5755;48.116;11.608;2023-02-28T11:21:18;16.43;;;11.27;;
11398;SDS011;5755;48.116;11.608;2023-02-28T11:23:49;14.87;;;11.17;;
11398;SDS011;5755;48.116;11.608;2023-02-28T11:29:12;17.03;;;10.87;;
11398;SDS011;5755;48.116;11.608;2023-02-28T11:31:46;15.77;;;10.77;;
11398;SDS011;5755;48.116;11.608;2023-02-28T11:34:29;19.70;;;11.70;;
11398;SDS011;5755;48.116;11.608;2023-02-28T11:36:58;18.70;;;11.67;;
11398;SDS011;5755;48.116;11.608;2023-02-28T11:39:30;17.10;;;11.17;;
11398;SDS011;5755;48.116;11.608;2023-02-28T11:45:04;15.83;;;10.50;;
11398;SDS011;5755;48.116;11.608;2023-02-28T11:47:44;15.20;;;10.60;;
11398;SDS011;5755;48.116;11.608;2023-02-28T11:53:34;18.27;;;11.40;;
11398;SDS011;5755;48.116;11.608;2023-02-28T11:56:15;13.47;;;10.27;;
11398;SDS011;5755;48.116;11.608;2023-02-28T11:58:50;15.13;;;10.70;;
11398;SDS011;5755;48.116;11.608;2023-02-28T12:01:28;14.83;;;11.17;;
11398;SDS011;5755;48.116;11.608;2023-02-28T12:04:10;16.60;;;11.00;;
11398;SDS011;5755;48.116;11.608;2023-02-28T12:06:49;15.53;;;10.73;;
11398;SDS011;5755;48.116;11.608;2023-02-28T12:09:32;16.20;;;10.73;;
11398;SDS011;5755;48.116;11.608;2023-02-28T12:12:16;14.43;;;11.10;;
11398;SDS011;5755;48.116;11.608;2023-02-28T12:14:53;17.43;;;11.57;;
11398;SDS011;5755;48.116;11.608;2023-02-28T12:17:38;16.83;;;10.77;;
11398;SDS011;5755;48.116;11.608;2023-02-28T12:20:14;14.97;;;10.20;;
11398;SDS011;5755;48.116;11.608;2023-02-28T12:22:52;15.47;;;11.10;;
11398;SDS011;5755;48.116;11.608;2023-02-28T12:28:28;14.53;;;9.90;;
11398;SDS011;5755;48.116;11.608;2023-02-28T12:31:00;12.83;;;10.17;;
11398;SDS011;5755;48.116;11.608;2023-02-28T12:33:32;17.30;;;10.63;;
11398;SDS011;5755;48.116;11.608;2023-02-28T12:36:03;13.73;;;10.93;;
11398;SDS011;5755;48.116;11.608;2023-02-28T12:38:36;13.97;;;10.27;;
11398;SDS011;5755;48.116;11.608;2023-02-28T12:41:10;14.07;;;9.70;;
11398;SDS011;5755;48.116;11.608;2023-02-28T12:43:42;12.07;;;9.60;;
11398;SDS011;5755;48.116;11.608;2023-02-28T12:46:12;12.33;;;10.03;;
11398;SDS011;5755;48.116;11.608;2023-02-28T12:48:43;15.53;;;10.70;;
11398;SDS011;5755;48.116;11.608;2023-02-28T12:51:13;12.80;;;9.70;;
11398;SDS011;5755;48.116;11.608;2023-02-28T12:53:49;13.30;;;9.73;;
11398;SDS011;5755;48.116;11.608;2023-02-28T12:56:30;14.63;;;10.50;;
11398;SDS011;5755;48.116;11.608;2023-02-28T12:59:10;12.33;;;9.83;;
11398;SDS011;5755;48.116;11.608;2023-02-28T13:01:47;14.00;;;10.27;;
11398;SDS011;5755;48.116;11.608;2023-02-28T13:04:29;13.80;;;9.83;;
11398;SDS011;5755;48.116;11.608;2023-02-28T13:07:33;14.40;;;10.23;;
11398;SDS011;5755;48.116;11.608;2023-02-28T13:10:18;13.90;;;10.57;;
11398;SDS011;5755;48.116;11.608;2023-02-28T13:12:50;14.10;;;9.90;;
11398;SDS011;5755;48.116;11.608;2023-02-28T13:15:19;12.40;;;8.80;;
11398;SDS011;5755;48.116;11.608;2023-02-28T13:17:50;12.07;;;9.30;;
11398;SDS011;5755;48.116;11.608;2023-02-28T13:20:18;14.23;;;9.70;;
11398;SDS011;5755;48.116;11.608;2023-02-28T13:22:48;13.13;;;9.77;;
11398;SDS011;5755;48.116;11.608;2023-02-28T13:31:33;12.60;;;10.07;;
11398;SDS011;5755;48.116;11.608;2023-02-28T13:34:41;14.60;;;10.43;;
11398;SDS011;5755;48.116;11.608;2023-02-28T13:40:28;11.87;;;9.93;;
11398;SDS011;5755;48.116;11.608;2023-02-28T13:43:02;13.83;;;10.63;;
11398;SDS011;5755;48.116;11.608;2023-02-28T13:45:29;15.30;;;10.70;;
11398;SDS011;5755;48.116;11.608;2023-02-28T13:48:03;14.07;;;9.70;;
11398;SDS011;5755;48.116;11.608;2023-02-28T13:50:33;14.07;;;9.53;;
11398;SDS011;5755;48.116;11.608;2023-02-28T13:56:17;14.60;;;9.60;;
11398;SDS011;5755;48.116;11.608;2023-02-28T13:58:53;11.67;;;9.40;;
11398;SDS011;5755;48.116;11.608;2023-02-28T14:01:28;13.30;;;10.20;;
11398;SDS011;5755;48.116;11.608;2023-02-28T14:04:14;13.07;;;10.37;;
11398;SDS011;5755;48.116;11.608;2023-02-28T14:07:11;13.40;;;10.87;;
11398;SDS011;5755;48.116;11.608;2023-02-28T14:09:46;13.80;;;11.03;;
11398;SDS011;5755;48.116;11.608;2023-02-28T14:15:40;14.67;;;10.37;;
11398;SDS011;5755;48.116;11.608;2023-02-28T14:18:20;13.27;;;10.30;;
11398;SDS011;5755;48.116;11.608;2023-02-28T14:20:49;13.13;;;10.00;;
11398;SDS011;5755;48.116;11.608;2023-02-28T14:23:25;13.87;;;10.50;;
11398;SDS011;5755;48.116;11.608;2023-02-28T14:26:14;12.90;;;9.87;;
11398;SDS011;5755;48.116;11.608;2023-02-28T14:29:00;12.90;;;9.63;;
11398;SDS011;5755;48.116;11.608;2023-02-28T14:31:38;13.60;;;9.87;;
11398;SDS011;5755;48.116;11.608;2023-02-28T14:34:17;15.23;;;10.10;;
11398;SDS011;5755;48.116;11.608;2023-02-28T14:36:52;14.07;;;9.47;;
11398;SDS011;5755;48.116;11.608;2023-02-28T14:39:22;14.77;;;10.00;;
11398;SDS011;5755;48.116;11.608;2023-02-28T14:41:51;12.17;;;8.90;;
11398;SDS011;5755;48.116;11.608;2023-02-28T14:44:19;14.33;;;9.03;;
11398;SDS011;5755;48.116;11.608;2023-02-28T14:46:48;13.63;;;9.07;;
11398;SDS011;5755;48.116;11.608;2023-02-28T14:49:18;13.07;;;9.17;;
11398;SDS011;5755;48.116;11.608;2023-02-28T14:51:47;12.67;;;9.60;;
11398;SDS011;5755;48.116;11.608;2023-02-28T14:54:15;16.10;;;9.53;;
11398;SDS011;5755;48.116;11.608;2023-02-28T14:56:50;13.40;;;9.83;;
11398;SDS011;5755;48.116;11.608;2023-02-28T14:59:27;13.47;;;9.50;;
11398;SDS011;5755;48.116;11.608;2023-02-28T15:04:51;14.13;;;9.63;;
11398;SDS011;5755;48.116;11.608;2023-02-28T15:07:20;11.17;;;9.30;;
11398;SDS011;5755;48.116;11.608;2023-02-28T15:10:06;12.60;;;9.43;;
11398;SDS011;5755;48.116;11.608;2023-02-28T15:12:36;13.07;;;8.93;;
11398;SDS011;5755;48.116;11.608;2023-02-28T15:15:04;13.83;;;9.60;;
11398;SDS011;5755;48.116;11.608;2023-02-28T15:17:32;15.97;;;9.63;;
11398;SDS011;5755;48.116;11.608;2023-02-28T15:20:01;12.77;;;9.30;;
11398;SDS011;5755;48.116;11.608;2023-02-28T15:22:28;12.97;;;9.40;;
11398;SDS011;5755;48.116;11.608;2023-02-28T15:25:00;11.70;;;9.27;;
11398;SDS011;5755;48.116;11.608;2023-02-28T15:27:31;15.77;;;8.90;;
11398;SDS011;5755;48.116;11.608;2023-02-28T15:30:04;13.47;;;9.53;;
11398;SDS011;5755;48.116;11.608;2023-02-28T15:32:34;14.97;;;9.63;;